TOURFACTS.DK  
Stats and Facts from Tour de France.

Tour de France 2019 starts in 320 days
  Riders   Stages   Teams   Summits   Yearly  


 
Search by year

After 2018 - Stage 21:
 15000 starters.
  5165 different riders.
  638 teams.
  2253 stages.
  456 restdays.
  442940.60 km.
  5684 abandonnees.


Top 3
GC
Geraint Thomas83:17:13
Tom Dumoulin83:19:04
Christopher Froome83:19:37
Climb
Julian Alaphilippe170 pt.
Warren Barguil91 pt.
Rafal Majka76 pt.
Sprint
Peter Sagan477 pt.
Alexander Kristoff246 pt.
Arnaud Démare203 pt.
Youth
Pierre-Roger Latou..83:39:26
Egan Bernal83:45:05
Guillaume Martin84:01:31
Facts from Tour de France 2016
  |   Stages.  |   Stage winners.  |   Days in yellow  |   Average speed.  |   Route.  |   Teams.  |   All riders.  |   Rookies.  |  

  |   Withdrawls.  |   GC.  |   Polka  |   Green  |   White  |   Summits. (In tour)  |   Miscellaneous.  |  

Stage 16 on 18 - 07 - 2016
         Owning:    Christopher Froome      Rafal Majka      Peter Sagan      Adam Yates  

Pick a stage:  1 2 3 4 5 6 7 8 9 10 11 12 13 14 15 16 17 18 19 20 21
  Moirans-en-MontagneBern | Dist: 206.00 km.
Cat: 4Côte de MühlebergGERTony Martin1 points 

Average speed for all riders in stage:  45,962 km./hr.
    Place:Name:Team:Time:Km/h:
1
SVKPeter SaganRUSTinkoff04:26:02  +  00:00:00=46,460 
2
NORAlexander KristoffRUSTeam Katusha04:26:02  +  00:00:00=46,460 
3
NORSondre Holst EngerCHEIAM Cycling04:26:02  +  00:00:00=46,460 
44 GERJohn DegenkolbDEUTeam Giant Alpecin04:26:02  +  00:00:00=46,460 
55 AUSMichael MatthewsAUSORICA BikeExchange04:26:02  +  00:00:00=46,460 
66 SUIFabian CancellaraUSATrek - Segafredo04:26:02  +  00:00:00=46,460 
77 BELSep VanmarckeNLDTeam Lotto NL - Jumbo04:26:02  +  00:00:00=46,460 
88 BRAMaximilano RichezeBELEtixx - Quick Step04:26:02  +  00:00:00=46,460 
99 NOREdvald Boasson HagenZAFDimension Data04:26:02  +  00:00:00=46,460 
1010 BELGreg Van AvermaetUSABMC Racing Team04:26:02  +  00:00:00=46,460 
1111 ESPAlejandro ValverdeESPMovistar Team04:26:02  +  00:00:00=46,460 
1212 AUTPatrick KonradDEUBora-Argon 1804:26:02  +  00:00:00=46,460 
1313 FRARomain BardetFRAAg2r La Mondiale04:26:02  +  00:00:00=46,460 
1414 KENChristopher FroomeGBRSky Procycling04:26:02  +  00:00:00=46,460 
1515 RSALouis MeintjesITALampre-Merida04:26:02  +  00:00:00=46,460 
1616 SUISébastien ReichenbachFRAFDJ04:26:02  +  00:00:00=46,460 
1717 CZERoman KreuzigerRUSTinkoff04:26:02  +  00:00:00=46,460 
1818 AUSRichie PorteUSABMC Racing Team04:26:02  +  00:00:00=46,460 
1919 ENGAdam YatesAUSORICA BikeExchange04:26:02  +  00:00:00=46,460 
2020 NEDBauke MollemaUSATrek - Segafredo04:26:02  +  00:00:00=46,460 
2121 NEDWilco KeldermanNLDTeam Lotto NL - Jumbo04:26:02  +  00:00:00=46,460 
2222 USATejay Van GarderenUSABMC Racing Team04:26:02  +  00:00:00=46,460 
2323 IOMMark CavendishZAFDimension Data04:26:02  +  00:00:00=46,460 
2424 NEDStef ClementCHEIAM Cycling04:26:02  +  00:00:00=46,460 
2525 ESPJoaquim RodriguezRUSTeam Katusha04:26:02  +  00:00:00=46,460 
2626 ITAFabio AruKAZAstana Pro Team04:26:02  +  00:00:00=46,460 
2727 COLSergio Luis HenaoGBRSky Procycling04:26:02  +  00:00:00=46,460 
2828 ENGDaniel MartinBELEtixx - Quick Step04:26:02  +  00:00:00=46,460 
2929 COLNairo QuintanaESPMovistar Team04:26:02  +  00:00:00=46,460 
3030 WALGeraint ThomasGBRSky Procycling04:26:02  +  00:00:00=46,460 
3131 BELJulien VermoteBELEtixx - Quick Step04:26:02  +  00:00:00=46,460 
3232 GERSimon GeschkeDEUTeam Giant Alpecin04:26:02  +  00:00:00=46,460 
3333 FRASamuel DumoulinFRAAg2r La Mondiale04:26:02  +  00:00:00=46,460 
3434 FRAWarren BarguilDEUTeam Giant Alpecin04:26:12  +  00:00:10=46,431 
3635 ESPLuis Angel MateFRACofidis – Solutions Crédits04:26:23  +  00:00:21=46,399 
3736 SLOBorut BozicFRACofidis – Solutions Crédits04:26:25  +  00:00:23=46,393 
3837 URSRamunas NavardauskasUSATeam Cannondale Drapac04:26:35  +  00:00:33=46,364 
3938 CZEPetr VakocBELEtixx - Quick Step04:26:40  +  00:00:38=46,350 
4039 GEREmanuel BuchmannDEUBora-Argon 1804:26:41  +  00:00:39=46,347 
4140 FRAAnthony RouxFRAFDJ04:26:41  +  00:00:39=46,347 
4241 ESPImanol ErvitiESPMovistar Team04:26:41  +  00:00:39=46,347 
4342 FRAArmindo FonsecaFRAFortuneo - Vital Concept04:26:41  +  00:00:39=46,347 
4443 GERAndré GreipelBELLotto Soudal04:26:41  +  00:00:39=46,347 
4544 SUIJakob FuglsangKAZAstana Pro Team04:26:41  +  00:00:39=46,347 
4645 FRAMickaël CherelFRAAg2r La Mondiale04:26:41  +  00:00:39=46,347 
4746 LUXFränk SchleckUSATrek - Segafredo04:26:41  +  00:00:39=46,347 
4847 FRAPierre RollandUSATeam Cannondale Drapac04:26:41  +  00:00:39=46,347 
4948 FRAAlexis VuillermozFRAAg2r La Mondiale04:26:41  +  00:00:39=46,347 
5049 SLOJan PolancITALampre-Merida04:26:41  +  00:00:39=46,347 
5150 AUSAdam HansenBELLotto Soudal04:26:41  +  00:00:39=46,347 
5251 GERMarcus BurghardtUSABMC Racing Team04:26:41  +  00:00:39=46,347 
5352 ITADamiano CarusoUSABMC Racing Team04:26:41  +  00:00:39=46,347 
5453 ESPLuis León SánchezKAZAstana Pro Team04:26:41  +  00:00:39=46,347 
5554 SUIReto HollensteinCHEIAM Cycling04:26:41  +  00:00:39=46,347 
5655 ESPHaimar ZubeldiaUSATrek - Segafredo04:26:41  +  00:00:39=46,347 
5756 BELJürgen RoelandtsBELLotto Soudal04:26:41  +  00:00:39=46,347 
5857 SUIMichael SchärUSABMC Racing Team04:27:01  +  00:00:59=46,289 
5958 GERPaul VossDEUBora-Argon 1804:27:01  +  00:00:59=46,289 
6059 CZEJan BártaDEUBora-Argon 1804:27:01  +  00:00:59=46,289 
6160 SUIMartin ElmigerCHEIAM Cycling04:27:01  +  00:00:59=46,289 
6261 ITADiego RosaKAZAstana Pro Team04:27:01  +  00:00:59=46,289 
6362 ITAVincenzo NibaliKAZAstana Pro Team04:27:01  +  00:00:59=46,289 
6463 POLBartosz HuzarskiDEUBora-Argon 1804:27:01  +  00:00:59=46,289 
6564 SUIGregory RastUSATrek - Segafredo04:27:01  +  00:00:59=46,289 
6665 ITADomenico PozzovivoFRAAg2r La Mondiale04:27:01  +  00:00:59=46,289 
6766 FRAArthur VichotFRAFDJ04:27:01  +  00:00:59=46,289 
6867 BELJan BakelantsFRAAg2r La Mondiale04:27:01  +  00:00:59=46,289 
6968 GERPaul MartensNLDTeam Lotto NL - Jumbo04:27:01  +  00:00:59=46,289 
7069 HRVRobert KiserlovskiRUSTinkoff04:27:01  +  00:00:59=46,289 
7170 AUTMarco HallerRUSTeam Katusha04:27:01  +  00:00:59=46,289 
7271 ESPDaniel MorenoESPMovistar Team04:27:01  +  00:00:59=46,289 
7372 RSAReinardt Janse Van RensburgZAFDimension Data04:27:01  +  00:00:59=46,289 
7473 SLOKristjan KorenUSATeam Cannondale Drapac04:27:22  +  00:01:20=46,229 
7574 ETHTsgabu Gebremaryan GrmayITALampre-Merida04:27:22  +  00:01:20=46,229 
7675 NEDTimo RoosenNLDTeam Lotto NL - Jumbo04:27:22  +  00:01:20=46,229 
7776 ITAPaolo TiralongoKAZAstana Pro Team04:27:22  +  00:01:20=46,229 
7877 URSTanel KangertKAZAstana Pro Team04:27:22  +  00:01:20=46,229 
7978 SUISteve MorabitoFRAFDJ04:27:22  +  00:01:20=46,229 
8079 RSADaryl ImpeyAUSORICA BikeExchange04:27:22  +  00:01:20=46,229 
8180 AUTGeorg PreidlerDEUTeam Giant Alpecin04:27:22  +  00:01:20=46,229 
8281 NEDRoy CurversDEUTeam Giant Alpecin04:27:22  +  00:01:20=46,229 
8382 NEDTom DumoulinDEUTeam Giant Alpecin04:27:22  +  00:01:20=46,229 
8483 ESPMarkel IrizarUSATrek - Segafredo04:27:22  +  00:01:20=46,229 
8584 RUSIlnur ZakarinRUSTeam Katusha04:27:22  +  00:01:20=46,229 
8685 FRAAdrien PetitFRADirect Energie04:27:22  +  00:01:20=46,229 
8786 SLOLuka PibernikITALampre-Merida04:27:22  +  00:01:20=46,229 
8887 ESPGorka Izaguirre InsaustiESPMovistar Team04:27:22  +  00:01:20=46,229 
8988 ESPJon Izaguirre InsaustiESPMovistar Team04:27:22  +  00:01:20=46,229 
9089 FRABrice FeilluFRAFortuneo - Vital Concept04:27:22  +  00:01:20=46,229 
9190 FRACyril GautierFRAAg2r La Mondiale04:27:22  +  00:01:20=46,229 
9291 LUXBen GastauerFRAAg2r La Mondiale04:27:22  +  00:01:20=46,229 
9392 ERIDaniel TeklehaimanotZAFDimension Data04:27:22  +  00:01:20=46,229 
9493 BELJasper StuyvenUSATrek - Segafredo04:27:32  +  00:01:30=46,200 
9594 NEDDylan GroenewegenNLDTeam Lotto NL - Jumbo04:28:00  +  00:01:58=46,119 
9695 AUSMathew HaymanAUSORICA BikeExchange04:28:00  +  00:01:58=46,119 
9796 ITAMatteo BonoITALampre-Merida04:28:10  +  00:02:08=46,091 
9897 NEDDylan Van BaarleUSATeam Cannondale Drapac04:28:13  +  00:02:11=46,082 
9998 BELMaarten WynantsNLDTeam Lotto NL - Jumbo04:28:29  +  00:02:27=46,036 
10099 SUIMichael AlbasiniAUSORICA BikeExchange04:28:30  +  00:02:28=46,034 
101100 NEDRamon SinkeldamDEUTeam Giant Alpecin04:28:32  +  00:02:30=46,028 
102101 ENGIan StannardGBRSky Procycling04:28:45  +  00:02:43=45,991 
103102 ITADavide CimolaiITALampre-Merida04:28:45  +  00:02:43=45,991 
104103 KAZAlexey LutsenkoKAZAstana Pro Team04:28:48  +  00:02:46=45,982 
105104 FRASylvain ChavanelFRADirect Energie04:28:56  +  00:02:54=45,959 
106105 ESPMikel NieveGBRSky Procycling04:28:56  +  00:02:54=45,959 
107106 ESPMikel Landa MeanaGBRSky Procycling04:28:56  +  00:02:54=45,959 
108107 ITACesare BenedettiDEUBora-Argon 1804:28:56  +  00:02:54=45,959 
109108 UKRAndriy GrivkoKAZAstana Pro Team04:28:56  +  00:02:54=45,959 
110109 COLJarlinson Pantano GomezCHEIAM Cycling04:28:56  +  00:02:54=45,959 
111110 COLWinner AnaconaESPMovistar Team04:28:56  +  00:02:54=45,959 
112111 USAPeter StetinaUSATrek - Segafredo04:28:56  +  00:02:54=45,959 
113112 DENChris Anker SørensenFRAFortuneo - Vital Concept04:28:56  +  00:02:54=45,959 
114113 HRVKristijan DurasekITALampre-Merida04:28:56  +  00:02:54=45,959 
115114 DENLars BakBELLotto Soudal04:28:56  +  00:02:54=45,959 
116115 ITAFabio SabatiniBELEtixx - Quick Step04:28:56  +  00:02:54=45,959 
117116 CANAntoine DuchesneFRADirect Energie04:28:56  +  00:02:54=45,959 
118117 FRAWilliam BonnetFRAFDJ04:28:56  +  00:02:54=45,959 
119118 PORRui CostaITALampre-Merida04:28:56  +  00:02:54=45,959 
120119 JPNYukiya ArashiroITALampre-Merida04:28:56  +  00:02:54=45,959 
121120 ESPDaniel NavarroFRACofidis – Solutions Crédits04:28:56  +  00:02:54=45,959 
122121 BLRVasil KiryienkaGBRSky Procycling04:28:56  +  00:02:54=45,959 
123122 FRAAnthony DelaplaceFRAFortuneo - Vital Concept04:28:56  +  00:02:54=45,959 
124123 FRAFlorian VachonFRAFortuneo - Vital Concept04:28:56  +  00:02:54=45,959 
125124 FRAJérôme CoppelCHEIAM Cycling04:28:56  +  00:02:54=45,959 
126125 ESPRubén PlazaAUSORICA BikeExchange04:28:56  +  00:02:54=45,959 
127126 FRAJérôme CousinFRACofidis – Solutions Crédits04:28:56  +  00:02:54=45,959 
128127 FRAYohann GèneFRADirect Energie04:28:56  +  00:02:54=45,959 
129128 PORNelson OliveiraESPMovistar Team04:28:56  +  00:02:54=45,959 
130129 ARGEduardo SepulvedaFRAFortuneo - Vital Concept04:29:13  +  00:03:11=45,911 
131130 BELSerge PauwelsZAFDimension Data04:29:14  +  00:03:12=45,908 
132131 FRACyril LemoineFRACofidis – Solutions Crédits04:29:17  +  00:03:15=45,900 
133132 WALLuke RoweGBRSky Procycling04:29:35  +  00:03:33=45,849 
134133 NEDWout PoelsGBRSky Procycling04:29:35  +  00:03:33=45,849 
135134 ITAOscar GattoRUSTinkoff04:29:46  +  00:03:44=45,817 
136135 ESPÁngel ViciosoRUSTeam Katusha04:29:46  +  00:03:44=45,817 
137136 POLRafal MajkaRUSTinkoff04:29:55  +  00:03:53=45,792 
138137 NEDLaurens ten DamDEUTeam Giant Alpecin04:30:02  +  00:04:00=45,772 
139138 AUTBernhard EiselZAFDimension Data04:30:02  +  00:04:00=45,772 
140139 GERRobert WagnerNLDTeam Lotto NL - Jumbo04:30:02  +  00:04:00=45,772 
141140 NEDAlbert TimmerDEUTeam Giant Alpecin04:30:02  +  00:04:00=45,772 
142141 NEDBert-Jan LindemanNLDTeam Lotto NL - Jumbo04:30:02  +  00:04:00=45,772 
143142 ENGStephen CummingsZAFDimension Data04:30:20  +  00:04:18=45,721 
144143 FRAAmaël MoinardUSABMC Racing Team04:30:20  +  00:04:18=45,721 
145144 USABrent BookwalterUSABMC Racing Team04:30:20  +  00:04:18=45,721 
146145 ITAJacopo GuarnieriRUSTeam Katusha04:30:20  +  00:04:18=45,721 
147146 BELThomas De GendtBELLotto Soudal04:30:27  +  00:04:25=45,702 
148147 GERMarcel SiebergBELLotto Soudal04:30:29  +  00:04:27=45,696 
149148 FRABryan CoquardFRADirect Energie04:30:52  +  00:04:50=45,631 
150149 FRAPierre-Luc PérichonFRAFortuneo - Vital Concept04:32:55  +  00:06:53=45,289 
151150 IRLChristopher Juul JensenAUSORICA BikeExchange04:32:55  +  00:06:53=45,289 
152151 AUSLuke DurbridgeAUSORICA BikeExchange04:32:55  +  00:06:53=45,289 
153152 ERINatnael Teweldemedhin BerhaneZAFDimension Data04:32:55  +  00:06:53=45,289 
154153 FRAGeoffrey SoupeFRACofidis – Solutions Crédits04:32:55  +  00:06:53=45,289 
155154 NZLGeorge BennettNLDTeam Lotto NL - Jumbo04:33:13  +  00:07:11=45,239 
156155 AUSRohan DennisUSABMC Racing Team04:33:13  +  00:07:11=45,239 
157156 AUSLeigh HowardCHEIAM Cycling04:33:25  +  00:07:23=45,206 
158157 NZLGregory HendersonBELLotto Soudal04:33:25  +  00:07:23=45,206 
159158 GERAndreas SchillingerDEUBora-Argon 1804:33:25  +  00:07:23=45,206 
160159 USAAlex HowesUSATeam Cannondale Drapac04:33:25  +  00:07:23=45,206 
161160 NEDTom-Jelte SlagterUSATeam Cannondale Drapac04:33:25  +  00:07:23=45,206 
162161 NORVegard BreenFRAFortuneo - Vital Concept04:33:25  +  00:07:23=45,206 
163162 ENGDaniel McLayFRAFortuneo - Vital Concept04:33:25  +  00:07:23=45,206 
164163 NZLShane ArchboldDEUBora-Argon 1804:33:25  +  00:07:23=45,206 
165164 FRARomain SicardFRADirect Energie04:33:25  +  00:07:23=45,206 
166165 FRANicolas EdetFRACofidis – Solutions Crédits04:34:19  +  00:08:17=45,057 
167166 USALawson CraddockUSATeam Cannondale Drapac04:34:20  +  00:08:18=45,055 
168167 FRAJérémy RoyFRAFDJ04:34:20  +  00:08:18=45,055 
169168 FRAArnold JeannessonFRACofidis – Solutions Crédits04:34:20  +  00:08:18=45,055 
170169 DENMichael ValgrenRUSTinkoff04:34:20  +  00:08:18=45,055 
171170 ESPAlberto LosadaRUSTeam Katusha04:34:20  +  00:08:18=45,055 
172171 FRAThomas VoecklerFRADirect Energie04:34:20  +  00:08:18=45,055 
173172 POLMaciej BodnarRUSTinkoff04:34:20  +  00:08:18=45,055 
174173 FRA Alexis GougeardFRAAg2r La Mondiale04:34:20  +  00:08:18=45,055 
175174 ITAMatteo TosattoRUSTinkoff04:34:43  +  00:08:41=44,992 
176175 BELIljo KeisseBELEtixx - Quick Step04:37:27  +  00:11:25=44,549 
178176 FRATony GallopinBELLotto Soudal04:37:58  +  00:11:56=44,466 
179177 BELSam BennettDEUBora-Argon 1804:37:58  +  00:11:56=44,466 
180178 FRAFabrice JeandesbozFRADirect Energie04:37:58  +  00:11:56=44,466 
181179 FRAChristophe LaporteFRACofidis – Solutions Crédits04:38:16  +  00:12:14=44,418 
182180 GERTony MartinBELEtixx - Quick Step04:38:22  +  00:12:20=44,402 
183181 FRAJulian AlaphilippeBELEtixx - Quick Step04:38:22  +  00:12:20=44,402 

Todays birthdays.

1878  Jean Novo
1883  Jules Chabas
1890  Ange Aubry
1893  Roger Marye
1913  Paul Maye
1914  Lucien Vlaemynck
1915  Alphonse Antoine
1932  Rolf Graf
1953  Julio Rubiano
1959  Jos Haex
1959  Gerard Veldscholten
1963  Pablo Moreno
1964  Juan Castillo
1977  Iban Mayo
1994  Fernando Gaviria